sensor_id;sensor_type;location;lat;lon;timestamp;P1;durP1;ratioP1;P2;durP2;ratioP2
7767;SDS011;3928;42.626;23.382;2023-04-08T00:01:16;15.17;;;12.87;;
7767;SDS011;3928;42.626;23.382;2023-04-08T00:03:42;17.33;;;12.37;;
7767;SDS011;3928;42.626;23.382;2023-04-08T00:06:09;18.07;;;12.03;;
7767;SDS011;3928;42.626;23.382;2023-04-08T00:08:37;19.83;;;12.17;;
7767;SDS011;3928;42.626;23.382;2023-04-08T00:11:04;13.77;;;11.03;;
7767;SDS011;3928;42.626;23.382;2023-04-08T00:13:31;16.57;;;11.50;;
7767;SDS011;3928;42.626;23.382;2023-04-08T00:15:58;13.50;;;11.37;;
7767;SDS011;3928;42.626;23.382;2023-04-08T00:18:25;13.33;;;11.10;;
7767;SDS011;3928;42.626;23.382;2023-04-08T00:20:52;13.93;;;11.63;;
7767;SDS011;3928;42.626;23.382;2023-04-08T00:23:19;15.80;;;11.33;;
7767;SDS011;3928;42.626;23.382;2023-04-08T00:25:47;14.23;;;10.53;;
7767;SDS011;3928;42.626;23.382;2023-04-08T00:28:14;12.20;;;10.57;;
7767;SDS011;3928;42.626;23.382;2023-04-08T00:30:40;16.47;;;11.00;;
7767;SDS011;3928;42.626;23.382;2023-04-08T00:33:07;12.83;;;10.13;;
7767;SDS011;3928;42.626;23.382;2023-04-08T00:35:34;13.37;;;10.67;;
7767;SDS011;3928;42.626;23.382;2023-04-08T00:38:01;12.13;;;10.27;;
7767;SDS011;3928;42.626;23.382;2023-04-08T00:40:28;12.07;;;9.73;;
7767;SDS011;3928;42.626;23.382;2023-04-08T00:42:57;15.30;;;11.23;;
7767;SDS011;3928;42.626;23.382;2023-04-08T00:45:23;15.03;;;11.00;;
7767;SDS011;3928;42.626;23.382;2023-04-08T00:47:50;18.73;;;12.87;;
7767;SDS011;3928;42.626;23.382;2023-04-08T00:50:17;19.17;;;13.07;;
7767;SDS011;3928;42.626;23.382;2023-04-08T00:52:44;18.50;;;14.07;;
7767;SDS011;3928;42.626;23.382;2023-04-08T00:55:11;19.63;;;14.50;;
7767;SDS011;3928;42.626;23.382;2023-04-08T00:57:38;20.43;;;14.90;;
7767;SDS011;3928;42.626;23.382;2023-04-08T01:00:07;20.67;;;15.03;;
7767;SDS011;3928;42.626;23.382;2023-04-08T01:02:38;24.50;;;15.63;;
7767;SDS011;3928;42.626;23.382;2023-04-08T01:05:12;18.43;;;14.27;;
7767;SDS011;3928;42.626;23.382;2023-04-08T01:07:46;18.23;;;14.00;;
7767;SDS011;3928;42.626;23.382;2023-04-08T01:10:15;16.13;;;12.90;;
7767;SDS011;3928;42.626;23.382;2023-04-08T01:12:47;16.23;;;11.60;;
7767;SDS011;3928;42.626;23.382;2023-04-08T01:15:18;14.37;;;11.37;;
7767;SDS011;3928;42.626;23.382;2023-04-08T01:17:46;13.03;;;11.17;;
7767;SDS011;3928;42.626;23.382;2023-04-08T01:20:15;15.73;;;11.37;;
7767;SDS011;3928;42.626;23.382;2023-04-08T01:22:47;13.57;;;10.77;;
7767;SDS011;3928;42.626;23.382;2023-04-08T01:25:25;14.80;;;11.17;;
7767;SDS011;3928;42.626;23.382;2023-04-08T01:27:57;17.30;;;12.23;;
7767;SDS011;3928;42.626;23.382;2023-04-08T01:30:26;15.73;;;11.33;;
7767;SDS011;3928;42.626;23.382;2023-04-08T01:32:54;20.67;;;13.77;;
7767;SDS011;3928;42.626;23.382;2023-04-08T01:35:22;19.10;;;12.83;;
7767;SDS011;3928;42.626;23.382;2023-04-08T01:37:50;17.17;;;13.67;;
7767;SDS011;3928;42.626;23.382;2023-04-08T01:40:17;19.83;;;13.97;;
7767;SDS011;3928;42.626;23.382;2023-04-08T01:42:46;20.43;;;14.50;;
7767;SDS011;3928;42.626;23.382;2023-04-08T01:45:15;22.30;;;12.43;;
7767;SDS011;3928;42.626;23.382;2023-04-08T01:47:42;18.33;;;11.63;;
7767;SDS011;3928;42.626;23.382;2023-04-08T01:50:12;14.93;;;11.13;;
7767;SDS011;3928;42.626;23.382;2023-04-08T01:52:41;14.23;;;11.13;;
7767;SDS011;3928;42.626;23.382;2023-04-08T01:55:10;17.43;;;11.97;;
7767;SDS011;3928;42.626;23.382;2023-04-08T01:57:37;16.17;;;11.83;;
7767;SDS011;3928;42.626;23.382;2023-04-08T02:00:06;15.87;;;11.43;;
7767;SDS011;3928;42.626;23.382;2023-04-08T02:02:36;16.70;;;12.17;;
7767;SDS011;3928;42.626;23.382;2023-04-08T02:05:06;15.97;;;11.37;;
7767;SDS011;3928;42.626;23.382;2023-04-08T02:07:33;15.70;;;11.53;;
7767;SDS011;3928;42.626;23.382;2023-04-08T02:10:00;13.60;;;10.60;;
7767;SDS011;3928;42.626;23.382;2023-04-08T02:12:27;13.93;;;10.70;;
7767;SDS011;3928;42.626;23.382;2023-04-08T02:14:54;14.47;;;10.47;;
7767;SDS011;3928;42.626;23.382;2023-04-08T02:17:24;12.60;;;10.63;;
7767;SDS011;3928;42.626;23.382;2023-04-08T02:20:00;17.23;;;11.37;;
7767;SDS011;3928;42.626;23.382;2023-04-08T02:22:34;15.03;;;11.33;;
7767;SDS011;3928;42.626;23.382;2023-04-08T02:25:07;16.50;;;10.60;;
7767;SDS011;3928;42.626;23.382;2023-04-08T02:27:38;13.73;;;10.70;;
7767;SDS011;3928;42.626;23.382;2023-04-08T02:30:07;14.53;;;11.03;;
7767;SDS011;3928;42.626;23.382;2023-04-08T02:32:35;13.67;;;10.63;;
7767;SDS011;3928;42.626;23.382;2023-04-08T02:35:04;16.60;;;11.67;;
7767;SDS011;3928;42.626;23.382;2023-04-08T02:37:32;14.03;;;10.57;;
7767;SDS011;3928;42.626;23.382;2023-04-08T02:39:59;12.97;;;11.07;;
7767;SDS011;3928;42.626;23.382;2023-04-08T02:42:26;14.50;;;11.43;;
7767;SDS011;3928;42.626;23.382;2023-04-08T02:44:53;12.40;;;10.73;;
7767;SDS011;3928;42.626;23.382;2023-04-08T02:47:20;12.37;;;11.07;;
7767;SDS011;3928;42.626;23.382;2023-04-08T02:49:46;15.63;;;10.60;;
7767;SDS011;3928;42.626;23.382;2023-04-08T02:52:18;13.47;;;10.30;;
7767;SDS011;3928;42.626;23.382;2023-04-08T02:54:45;15.17;;;11.93;;
7767;SDS011;3928;42.626;23.382;2023-04-08T02:57:11;16.37;;;11.37;;
7767;SDS011;3928;42.626;23.382;2023-04-08T02:59:38;15.43;;;11.50;;
7767;SDS011;3928;42.626;23.382;2023-04-08T03:02:05;16.23;;;10.87;;
7767;SDS011;3928;42.626;23.382;2023-04-08T03:04:32;15.43;;;11.80;;
7767;SDS011;3928;42.626;23.382;2023-04-08T03:06:59;14.10;;;11.10;;
7767;SDS011;3928;42.626;23.382;2023-04-08T03:09:27;14.00;;;11.03;;
7767;SDS011;3928;42.626;23.382;2023-04-08T03:11:54;13.37;;;10.90;;
7767;SDS011;3928;42.626;23.382;2023-04-08T03:14:20;12.93;;;10.87;;
7767;SDS011;3928;42.626;23.382;2023-04-08T03:16:47;13.70;;;11.50;;
7767;SDS011;3928;42.626;23.382;2023-04-08T03:19:14;12.73;;;11.17;;
7767;SDS011;3928;42.626;23.382;2023-04-08T03:21:41;13.63;;;11.07;;
7767;SDS011;3928;42.626;23.382;2023-04-08T03:24:07;13.13;;;10.77;;
7767;SDS011;3928;42.626;23.382;2023-04-08T03:26:36;15.03;;;12.20;;
7767;SDS011;3928;42.626;23.382;2023-04-08T03:29:02;13.83;;;11.27;;
7767;SDS011;3928;42.626;23.382;2023-04-08T03:31:31;13.93;;;11.70;;
7767;SDS011;3928;42.626;23.382;2023-04-08T03:33:58;14.87;;;12.10;;
7767;SDS011;3928;42.626;23.382;2023-04-08T03:36:24;15.30;;;10.83;;
7767;SDS011;3928;42.626;23.382;2023-04-08T03:38:52;14.60;;;11.83;;
7767;SDS011;3928;42.626;23.382;2023-04-08T03:41:18;13.63;;;11.53;;
7767;SDS011;3928;42.626;23.382;2023-04-08T03:43:47;13.50;;;11.20;;
7767;SDS011;3928;42.626;23.382;2023-04-08T03:46:13;17.30;;;12.67;;
7767;SDS011;3928;42.626;23.382;2023-04-08T03:48:40;17.77;;;12.40;;
7767;SDS011;3928;42.626;23.382;2023-04-08T03:51:07;15.87;;;11.10;;
7767;SDS011;3928;42.626;23.382;2023-04-08T03:53:34;13.43;;;10.67;;
7767;SDS011;3928;42.626;23.382;2023-04-08T03:56:00;14.93;;;10.93;;
7767;SDS011;3928;42.626;23.382;2023-04-08T03:58:28;15.03;;;10.97;;
7767;SDS011;3928;42.626;23.382;2023-04-08T04:00:57;12.67;;;11.10;;
7767;SDS011;3928;42.626;23.382;2023-04-08T04:03:24;15.73;;;11.47;;
7767;SDS011;3928;42.626;23.382;2023-04-08T04:05:51;13.37;;;10.70;;
7767;SDS011;3928;42.626;23.382;2023-04-08T04:25:39;15.83;;;11.47;;
7767;SDS011;3928;42.626;23.382;2023-04-08T04:28:06;15.03;;;11.17;;
7767;SDS011;3928;42.626;23.382;2023-04-08T04:30:35;14.57;;;11.57;;
7767;SDS011;3928;42.626;23.382;2023-04-08T04:33:02;14.47;;;11.80;;
7767;SDS011;3928;42.626;23.382;2023-04-08T04:35:29;14.20;;;12.17;;
7767;SDS011;3928;42.626;23.382;2023-04-08T04:37:56;19.27;;;12.73;;
7767;SDS011;3928;42.626;23.382;2023-04-08T04:40:22;14.13;;;11.63;;
7767;SDS011;3928;42.626;23.382;2023-04-08T04:42:50;15.80;;;11.90;;
7767;SDS011;3928;42.626;23.382;2023-04-08T04:45:17;13.93;;;12.00;;
7767;SDS011;3928;42.626;23.382;2023-04-08T04:47:44;14.83;;;12.13;;
7767;SDS011;3928;42.626;23.382;2023-04-08T04:50:11;19.97;;;13.67;;
7767;SDS011;3928;42.626;23.382;2023-04-08T04:52:37;19.50;;;13.63;;
7767;SDS011;3928;42.626;23.382;2023-04-08T04:55:05;14.57;;;12.30;;
7767;SDS011;3928;42.626;23.382;2023-04-08T04:57:33;29.13;;;12.77;;
7767;SDS011;3928;42.626;23.382;2023-04-08T05:00:01;20.53;;;13.43;;
7767;SDS011;3928;42.626;23.382;2023-04-08T05:02:28;18.30;;;13.87;;
7767;SDS011;3928;42.626;23.382;2023-04-08T05:04:56;16.30;;;12.47;;
7767;SDS011;3928;42.626;23.382;2023-04-08T05:07:23;20.70;;;13.87;;
7767;SDS011;3928;42.626;23.382;2023-04-08T05:09:50;19.37;;;13.27;;
7767;SDS011;3928;42.626;23.382;2023-04-08T05:12:17;23.00;;;14.23;;
7767;SDS011;3928;42.626;23.382;2023-04-08T05:14:44;17.50;;;13.77;;
7767;SDS011;3928;42.626;23.382;2023-04-08T05:17:12;18.57;;;14.63;;
7767;SDS011;3928;42.626;23.382;2023-04-08T05:19:39;17.43;;;13.13;;
7767;SDS011;3928;42.626;23.382;2023-04-08T05:22:06;27.40;;;14.63;;
7767;SDS011;3928;42.626;23.382;2023-04-08T05:24:33;21.73;;;15.20;;
7767;SDS011;3928;42.626;23.382;2023-04-08T05:27:00;19.43;;;15.13;;
7767;SDS011;3928;42.626;23.382;2023-04-08T05:29:27;18.00;;;14.10;;
7767;SDS011;3928;42.626;23.382;2023-04-08T05:31:53;18.43;;;14.33;;
7767;SDS011;3928;42.626;23.382;2023-04-08T05:34:22;20.53;;;14.93;;
7767;SDS011;3928;42.626;23.382;2023-04-08T05:36:49;17.13;;;13.60;;
7767;SDS011;3928;42.626;23.382;2023-04-08T05:39:16;23.30;;;14.67;;
7767;SDS011;3928;42.626;23.382;2023-04-08T05:41:43;19.03;;;13.20;;
7767;SDS011;3928;42.626;23.382;2023-04-08T05:44:10;16.90;;;13.10;;
7767;SDS011;3928;42.626;23.382;2023-04-08T05:46:37;16.13;;;12.60;;
7767;SDS011;3928;42.626;23.382;2023-04-08T05:49:04;17.10;;;12.90;;
7767;SDS011;3928;42.626;23.382;2023-04-08T05:51:32;18.77;;;14.63;;
7767;SDS011;3928;42.626;23.382;2023-04-08T05:53:59;20.00;;;13.40;;
7767;SDS011;3928;42.626;23.382;2023-04-08T05:56:26;19.30;;;14.83;;
7767;SDS011;3928;42.626;23.382;2023-04-08T05:58:53;18.37;;;13.37;;
7767;SDS011;3928;42.626;23.382;2023-04-08T06:01:19;18.67;;;13.70;;
7767;SDS011;3928;42.626;23.382;2023-04-08T06:03:46;18.97;;;14.20;;
7767;SDS011;3928;42.626;23.382;2023-04-08T06:06:13;23.63;;;14.80;;
7767;SDS011;3928;42.626;23.382;2023-04-08T06:08:41;18.43;;;14.30;;
7767;SDS011;3928;42.626;23.382;2023-04-08T06:11:08;18.83;;;14.47;;
7767;SDS011;3928;42.626;23.382;2023-04-08T06:13:35;22.97;;;14.23;;
7767;SDS011;3928;42.626;23.382;2023-04-08T06:16:09;17.73;;;14.40;;
7767;SDS011;3928;42.626;23.382;2023-04-08T06:18:36;23.93;;;15.60;;
7767;SDS011;3928;42.626;23.382;2023-04-08T06:21:03;22.03;;;14.80;;
7767;SDS011;3928;42.626;23.382;2023-04-08T06:23:30;18.40;;;14.17;;
7767;SDS011;3928;42.626;23.382;2023-04-08T06:25:58;16.03;;;14.23;;
7767;SDS011;3928;42.626;23.382;2023-04-08T06:28:25;25.40;;;16.30;;
7767;SDS011;3928;42.626;23.382;2023-04-08T06:30:55;18.03;;;15.23;;
7767;SDS011;3928;42.626;23.382;2023-04-08T06:33:22;19.27;;;14.87;;
7767;SDS011;3928;42.626;23.382;2023-04-08T06:35:49;23.07;;;13.93;;
7767;SDS011;3928;42.626;23.382;2023-04-08T06:38:16;19.80;;;15.63;;
7767;SDS011;3928;42.626;23.382;2023-04-08T06:40:43;22.27;;;15.07;;
7767;SDS011;3928;42.626;23.382;2023-04-08T06:43:12;19.50;;;13.93;;
7767;SDS011;3928;42.626;23.382;2023-04-08T06:45:39;19.40;;;15.27;;
7767;SDS011;3928;42.626;23.382;2023-04-08T06:48:07;20.63;;;14.90;;
7767;SDS011;3928;42.626;23.382;2023-04-08T06:50:34;18.53;;;15.37;;
7767;SDS011;3928;42.626;23.382;2023-04-08T06:53:00;19.97;;;14.77;;
7767;SDS011;3928;42.626;23.382;2023-04-08T06:55:27;17.17;;;14.30;;
7767;SDS011;3928;42.626;23.382;2023-04-08T06:57:54;25.03;;;15.07;;
7767;SDS011;3928;42.626;23.382;2023-04-08T07:00:22;20.63;;;14.93;;
7767;SDS011;3928;42.626;23.382;2023-04-08T07:02:49;23.00;;;15.37;;
7767;SDS011;3928;42.626;23.382;2023-04-08T07:05:15;19.40;;;13.97;;
7767;SDS011;3928;42.626;23.382;2023-04-08T07:07:42;17.53;;;14.17;;
7767;SDS011;3928;42.626;23.382;2023-04-08T07:10:09;18.13;;;14.10;;
7767;SDS011;3928;42.626;23.382;2023-04-08T07:12:36;18.70;;;14.50;;
7767;SDS011;3928;42.626;23.382;2023-04-08T07:15:03;18.53;;;13.77;;
7767;SDS011;3928;42.626;23.382;2023-04-08T07:17:32;19.87;;;15.07;;
7767;SDS011;3928;42.626;23.382;2023-04-08T07:19:59;18.60;;;14.77;;
7767;SDS011;3928;42.626;23.382;2023-04-08T07:22:25;23.33;;;14.80;;
7767;SDS011;3928;42.626;23.382;2023-04-08T07:24:52;20.63;;;14.87;;
7767;SDS011;3928;42.626;23.382;2023-04-08T07:27:19;20.20;;;15.50;;
7767;SDS011;3928;42.626;23.382;2023-04-08T07:29:51;20.23;;;14.77;;
7767;SDS011;3928;42.626;23.382;2023-04-08T07:32:18;21.10;;;13.90;;
7767;SDS011;3928;42.626;23.382;2023-04-08T07:34:46;15.60;;;12.70;;
7767;SDS011;3928;42.626;23.382;2023-04-08T07:37:13;16.60;;;13.33;;
7767;SDS011;3928;42.626;23.382;2023-04-08T07:39:40;18.80;;;13.57;;
7767;SDS011;3928;42.626;23.382;2023-04-08T07:42:06;18.20;;;13.77;;
7767;SDS011;3928;42.626;23.382;2023-04-08T07:44:33;14.57;;;12.63;;
7767;SDS011;3928;42.626;23.382;2023-04-08T07:47:00;17.10;;;12.67;;
7767;SDS011;3928;42.626;23.382;2023-04-08T07:49:27;19.70;;;12.00;;
7767;SDS011;3928;42.626;23.382;2023-04-08T07:51:55;15.43;;;11.87;;
7767;SDS011;3928;42.626;23.382;2023-04-08T07:54:22;16.77;;;12.43;;
7767;SDS011;3928;42.626;23.382;2023-04-08T07:56:49;13.93;;;12.07;;
7767;SDS011;3928;42.626;23.382;2023-04-08T07:59:15;14.47;;;12.00;;
7767;SDS011;3928;42.626;23.382;2023-04-08T08:01:42;13.03;;;11.13;;
7767;SDS011;3928;42.626;23.382;2023-04-08T08:04:10;15.13;;;10.97;;
7767;SDS011;3928;42.626;23.382;2023-04-08T08:06:37;16.27;;;11.57;;
7767;SDS011;3928;42.626;23.382;2023-04-08T08:09:06;14.47;;;12.27;;
7767;SDS011;3928;42.626;23.382;2023-04-08T08:11:33;14.73;;;12.07;;
7767;SDS011;3928;42.626;23.382;2023-04-08T08:13:59;14.67;;;11.87;;
7767;SDS011;3928;42.626;23.382;2023-04-08T08:16:27;18.93;;;11.73;;
7767;SDS011;3928;42.626;23.382;2023-04-08T08:18:54;16.40;;;13.07;;
7767;SDS011;3928;42.626;23.382;2023-04-08T08:21:20;12.77;;;10.83;;
7767;SDS011;3928;42.626;23.382;2023-04-08T08:23:47;15.93;;;13.50;;
7767;SDS011;3928;42.626;23.382;2023-04-08T08:26:16;14.73;;;12.37;;
7767;SDS011;3928;42.626;23.382;2023-04-08T08:28:42;15.03;;;12.60;;
7767;SDS011;3928;42.626;23.382;2023-04-08T08:31:09;21.10;;;13.30;;
7767;SDS011;3928;42.626;23.382;2023-04-08T08:33:36;16.17;;;12.17;;
7767;SDS011;3928;42.626;23.382;2023-04-08T08:36:03;19.53;;;12.67;;
7767;SDS011;3928;42.626;23.382;2023-04-08T08:38:31;15.90;;;12.50;;
7767;SDS011;3928;42.626;23.382;2023-04-08T08:40:58;15.97;;;12.67;;
7767;SDS011;3928;42.626;23.382;2023-04-08T08:43:29;16.53;;;12.83;;
7767;SDS011;3928;42.626;23.382;2023-04-08T08:45:57;20.67;;;14.37;;
7767;SDS011;3928;42.626;23.382;2023-04-08T08:48:24;15.97;;;12.27;;
7767;SDS011;3928;42.626;23.382;2023-04-08T08:50:51;22.13;;;15.17;;
7767;SDS011;3928;42.626;23.382;2023-04-08T08:53:19;23.20;;;15.47;;
7767;SDS011;3928;42.626;23.382;2023-04-08T08:55:47;18.53;;;14.07;;
7767;SDS011;3928;42.626;23.382;2023-04-08T08:58:14;20.93;;;13.17;;
7767;SDS011;3928;42.626;23.382;2023-04-08T09:00:42;21.93;;;14.03;;
7767;SDS011;3928;42.626;23.382;2023-04-08T09:03:16;20.33;;;15.43;;
7767;SDS011;3928;42.626;23.382;2023-04-08T09:05:47;23.40;;;17.07;;
7767;SDS011;3928;42.626;23.382;2023-04-08T09:11:10;20.30;;;16.40;;
7767;SDS011;3928;42.626;23.382;2023-04-08T09:13:38;21.40;;;16.90;;
7767;SDS011;3928;42.626;23.382;2023-04-08T09:16:09;21.57;;;14.87;;
7767;SDS011;3928;42.626;23.382;2023-04-08T09:18:37;22.33;;;16.47;;
7767;SDS011;3928;42.626;23.382;2023-04-08T09:21:05;20.07;;;16.03;;
7767;SDS011;3928;42.626;23.382;2023-04-08T09:23:39;18.00;;;15.63;;
7767;SDS011;3928;42.626;23.382;2023-04-08T09:26:08;19.73;;;15.43;;
7767;SDS011;3928;42.626;23.382;2023-04-08T09:28:35;21.77;;;16.10;;
7767;SDS011;3928;42.626;23.382;2023-04-08T09:31:20;25.37;;;17.00;;
7767;SDS011;3928;42.626;23.382;2023-04-08T09:33:48;20.73;;;15.03;;
7767;SDS011;3928;42.626;23.382;2023-04-08T09:36:16;21.13;;;14.77;;
7767;SDS011;3928;42.626;23.382;2023-04-08T09:38:43;21.07;;;16.27;;
7767;SDS011;3928;42.626;23.382;2023-04-08T09:41:12;19.10;;;13.70;;
7767;SDS011;3928;42.626;23.382;2023-04-08T09:43:41;16.57;;;12.40;;
7767;SDS011;3928;42.626;23.382;2023-04-08T09:46:13;21.63;;;13.53;;
7767;SDS011;3928;42.626;23.382;2023-04-08T09:48:45;18.63;;;13.05;;
7767;SDS011;3928;42.626;23.382;2023-04-08T09:51:15;17.25;;;13.95;;
7767;SDS011;3928;42.626;23.382;2023-04-08T09:53:46;22.48;;;15.65;;
7767;SDS011;3928;42.626;23.382;2023-04-08T09:56:13;20.27;;;15.18;;
7767;SDS011;3928;42.626;23.382;2023-04-08T09:58:44;19.20;;;15.18;;
7767;SDS011;3928;42.626;23.382;2023-04-08T10:01:15;20.10;;;13.93;;
7767;SDS011;3928;42.626;23.382;2023-04-08T10:03:47;18.38;;;15.55;;
7767;SDS011;3928;42.626;23.382;2023-04-08T10:06:17;18.20;;;14.88;;
7767;SDS011;3928;42.626;23.382;2023-04-08T10:08:45;17.45;;;13.93;;
7767;SDS011;3928;42.626;23.382;2023-04-08T10:11:13;18.15;;;14.10;;
7767;SDS011;3928;42.626;23.382;2023-04-08T10:13:40;20.20;;;15.07;;
7767;SDS011;3928;42.626;23.382;2023-04-08T10:16:17;19.35;;;14.10;;
7767;SDS011;3928;42.626;23.382;2023-04-08T10:18:46;17.95;;;13.23;;
7767;SDS011;3928;42.626;23.382;2023-04-08T10:24:00;19.08;;;13.00;;
7767;SDS011;3928;42.626;23.382;2023-04-08T10:26:40;19.15;;;13.77;;
7767;SDS011;3928;42.626;23.382;2023-04-08T10:32:07;18.73;;;14.33;;
7767;SDS011;3928;42.626;23.382;2023-04-08T10:34:54;17.03;;;13.17;;
7767;SDS011;3928;42.626;23.382;2023-04-08T10:37:20;20.98;;;14.13;;
7767;SDS011;3928;42.626;23.382;2023-04-08T10:39:48;17.73;;;13.93;;
7767;SDS011;3928;42.626;23.382;2023-04-08T10:42:16;19.70;;;13.13;;
7767;SDS011;3928;42.626;23.382;2023-04-08T10:44:43;16.50;;;12.43;;
7767;SDS011;3928;42.626;23.382;2023-04-08T10:47:11;18.30;;;13.38;;
7767;SDS011;3928;42.626;23.382;2023-04-08T10:49:38;17.60;;;14.20;;
7767;SDS011;3928;42.626;23.382;2023-04-08T10:52:07;28.83;;;15.50;;
7767;SDS011;3928;42.626;23.382;2023-04-08T10:54:34;22.10;;;14.10;;
7767;SDS011;3928;42.626;23.382;2023-04-08T10:57:02;20.13;;;13.30;;
7767;SDS011;3928;42.626;23.382;2023-04-08T10:59:30;21.57;;;14.47;;
7767;SDS011;3928;42.626;23.382;2023-04-08T11:01:58;21.73;;;14.47;;
7767;SDS011;3928;42.626;23.382;2023-04-08T11:04:25;16.20;;;12.80;;
7767;SDS011;3928;42.626;23.382;2023-04-08T11:06:52;19.13;;;13.67;;
7767;SDS011;3928;42.626;23.382;2023-04-08T11:09:20;18.37;;;12.50;;
7767;SDS011;3928;42.626;23.382;2023-04-08T11:11:47;14.77;;;12.73;;
7767;SDS011;3928;42.626;23.382;2023-04-08T11:14:14;16.63;;;12.45;;
7767;SDS011;3928;42.626;23.382;2023-04-08T11:16:45;66.97;;;43.15;;
7767;SDS011;3928;42.626;23.382;2023-04-08T11:19:12;23.47;;;15.07;;
7767;SDS011;3928;42.626;23.382;2023-04-08T11:21:40;15.53;;;12.20;;
7767;SDS011;3928;42.626;23.382;2023-04-08T11:24:10;15.23;;;11.37;;
7767;SDS011;3928;42.626;23.382;2023-04-08T11:26:39;17.40;;;12.70;;
7767;SDS011;3928;42.626;23.382;2023-04-08T11:29:07;18.70;;;13.30;;
7767;SDS011;3928;42.626;23.382;2023-04-08T11:31:36;16.53;;;13.57;;
7767;SDS011;3928;42.626;23.382;2023-04-08T11:34:03;14.05;;;11.75;;
7767;SDS011;3928;42.626;23.382;2023-04-08T11:36:31;15.03;;;12.57;;
7767;SDS011;3928;42.626;23.382;2023-04-08T11:39:00;14.70;;;11.63;;
7767;SDS011;3928;42.626;23.382;2023-04-08T11:41:35;16.47;;;12.47;;
7767;SDS011;3928;42.626;23.382;2023-04-08T11:44:04;16.47;;;12.73;;
7767;SDS011;3928;42.626;23.382;2023-04-08T11:46:32;16.07;;;12.37;;
7767;SDS011;3928;42.626;23.382;2023-04-08T11:49:03;18.00;;;12.48;;
7767;SDS011;3928;42.626;23.382;2023-04-08T11:51:31;15.75;;;12.35;;
7767;SDS011;3928;42.626;23.382;2023-04-08T11:53:59;17.23;;;11.47;;
7767;SDS011;3928;42.626;23.382;2023-04-08T11:56:27;16.27;;;12.23;;
7767;SDS011;3928;42.626;23.382;2023-04-08T11:58:57;15.57;;;12.13;;
7767;SDS011;3928;42.626;23.382;2023-04-08T12:01:25;14.93;;;12.10;;
7767;SDS011;3928;42.626;23.382;2023-04-08T12:03:56;19.95;;;13.68;;
7767;SDS011;3928;42.626;23.382;2023-04-08T12:06:24;15.17;;;12.00;;
7767;SDS011;3928;42.626;23.382;2023-04-08T12:08:52;16.17;;;12.70;;
7767;SDS011;3928;42.626;23.382;2023-04-08T12:11:20;14.30;;;12.15;;
7767;SDS011;3928;42.626;23.382;2023-04-08T12:13:47;16.15;;;11.18;;
7767;SDS011;3928;42.626;23.382;2023-04-08T12:16:15;13.27;;;9.48;;
7767;SDS011;3928;42.626;23.382;2023-04-08T12:18:43;11.98;;;10.20;;
7767;SDS011;3928;42.626;23.382;2023-04-08T12:21:10;13.68;;;9.30;;
7767;SDS011;3928;42.626;23.382;2023-04-08T12:23:37;9.85;;;8.73;;
7767;SDS011;3928;42.626;23.382;2023-04-08T12:26:04;9.85;;;8.85;;
7767;SDS011;3928;42.626;23.382;2023-04-08T12:28:31;10.55;;;8.45;;
7767;SDS011;3928;42.626;23.382;2023-04-08T12:30:59;8.95;;;7.25;;
7767;SDS011;3928;42.626;23.382;2023-04-08T12:33:45;8.88;;;7.22;;
7767;SDS011;3928;42.626;23.382;2023-04-08T12:36:12;9.25;;;6.82;;
7767;SDS011;3928;42.626;23.382;2023-04-08T12:38:38;7.40;;;6.70;;
7767;SDS011;3928;42.626;23.382;2023-04-08T12:41:05;8.10;;;7.32;;
7767;SDS011;3928;42.626;23.382;2023-04-08T12:43:32;9.77;;;7.18;;
7767;SDS011;3928;42.626;23.382;2023-04-08T12:45:59;8.20;;;7.40;;
7767;SDS011;3928;42.626;23.382;2023-04-08T12:48:27;8.02;;;7.22;;
7767;SDS011;3928;42.626;23.382;2023-04-08T12:50:55;9.48;;;7.47;;
7767;SDS011;3928;42.626;23.382;2023-04-08T12:53:22;8.98;;;7.93;;
7767;SDS011;3928;42.626;23.382;2023-04-08T12:55:49;8.95;;;8.05;;
7767;SDS011;3928;42.626;23.382;2023-04-08T12:58:21;9.88;;;8.85;;
7767;SDS011;3928;42.626;23.382;2023-04-08T13:00:48;12.68;;;8.52;;
7767;SDS011;3928;42.626;23.382;2023-04-08T13:03:15;9.85;;;8.82;;
7767;SDS011;3928;42.626;23.382;2023-04-08T13:05:42;9.10;;;8.20;;
7767;SDS011;3928;42.626;23.382;2023-04-08T13:08:10;10.02;;;9.02;;
7767;SDS011;3928;42.626;23.382;2023-04-08T13:10:37;9.27;;;8.38;;
7767;SDS011;3928;42.626;23.382;2023-04-08T13:13:04;11.15;;;9.70;;
7767;SDS011;3928;42.626;23.382;2023-04-08T13:15:30;12.13;;;8.88;;
7767;SDS011;3928;42.626;23.382;2023-04-08T13:17:57;11.95;;;9.27;;
7767;SDS011;3928;42.626;23.382;2023-04-08T13:20:24;10.50;;;9.45;;
7767;SDS011;3928;42.626;23.382;2023-04-08T13:22:51;12.17;;;10.10;;
7767;SDS011;3928;42.626;23.382;2023-04-08T13:25:20;10.88;;;9.57;;
7767;SDS011;3928;42.626;23.382;2023-04-08T13:27:47;12.20;;;8.85;;
7767;SDS011;3928;42.626;23.382;2023-04-08T13:30:14;10.93;;;9.07;;
7767;SDS011;3928;42.626;23.382;2023-04-08T13:32:41;9.60;;;8.63;;
7767;SDS011;3928;42.626;23.382;2023-04-08T13:35:08;12.02;;;8.73;;
7767;SDS011;3928;42.626;23.382;2023-04-08T13:37:35;10.65;;;9.45;;
7767;SDS011;3928;42.626;23.382;2023-04-08T13:40:02;12.52;;;9.45;;
7767;SDS011;3928;42.626;23.382;2023-04-08T13:42:31;11.07;;;8.70;;
7767;SDS011;3928;42.626;23.382;2023-04-08T13:44:58;9.77;;;8.60;;
7767;SDS011;3928;42.626;23.382;2023-04-08T13:47:25;10.20;;;8.85;;
7767;SDS011;3928;42.626;23.382;2023-04-08T13:49:52;10.50;;;8.83;;
7767;SDS011;3928;42.626;23.382;2023-04-08T13:52:19;10.45;;;9.20;;
7767;SDS011;3928;42.626;23.382;2023-04-08T13:54:46;11.57;;;9.38;;
7767;SDS011;3928;42.626;23.382;2023-04-08T13:57:13;13.25;;;9.57;;
7767;SDS011;3928;42.626;23.382;2023-04-08T13:59:41;9.47;;;8.53;;
7767;SDS011;3928;42.626;23.382;2023-04-08T14:02:08;11.83;;;9.33;;
7767;SDS011;3928;42.626;23.382;2023-04-08T14:04:35;11.13;;;8.90;;
7767;SDS011;3928;42.626;23.382;2023-04-08T14:07:02;9.80;;;8.80;;
7767;SDS011;3928;42.626;23.382;2023-04-08T14:09:28;15.13;;;10.57;;
7767;SDS011;3928;42.626;23.382;2023-04-08T14:11:55;11.97;;;10.67;;
7767;SDS011;3928;42.626;23.382;2023-04-08T14:14:23;14.90;;;11.30;;
7767;SDS011;3928;42.626;23.382;2023-04-08T14:16:51;12.40;;;9.90;;
7767;SDS011;3928;42.626;23.382;2023-04-08T14:19:18;11.53;;;10.27;;
7767;SDS011;3928;42.626;23.382;2023-04-08T14:21:44;12.77;;;10.70;;
7767;SDS011;3928;42.626;23.382;2023-04-08T14:24:11;10.77;;;8.97;;
7767;SDS011;3928;42.626;23.382;2023-04-08T14:26:38;10.10;;;9.07;;
7767;SDS011;3928;42.626;23.382;2023-04-08T14:29:05;11.17;;;8.60;;
7767;SDS011;3928;42.626;23.382;2023-04-08T14:31:32;12.70;;;9.97;;
7767;SDS011;3928;42.626;23.382;2023-04-08T14:34:03;13.07;;;10.23;;
7767;SDS011;3928;42.626;23.382;2023-04-08T14:36:30;9.67;;;8.67;;
7767;SDS011;3928;42.626;23.382;2023-04-08T14:38:57;13.27;;;9.80;;
7767;SDS011;3928;42.626;23.382;2023-04-08T14:41:24;11.50;;;10.20;;
7767;SDS011;3928;42.626;23.382;2023-04-08T14:43:51;12.33;;;9.77;;
7767;SDS011;3928;42.626;23.382;2023-04-08T14:46:18;12.13;;;10.07;;
7767;SDS011;3928;42.626;23.382;2023-04-08T14:48:46;11.70;;;9.73;;
7767;SDS011;3928;42.626;23.382;2023-04-08T14:51:14;10.67;;;9.57;;
7767;SDS011;3928;42.626;23.382;2023-04-08T14:53:42;11.00;;;9.10;;
7767;SDS011;3928;42.626;23.382;2023-04-08T14:56:11;12.63;;;10.17;;
7767;SDS011;3928;42.626;23.382;2023-04-08T14:58:38;11.17;;;9.90;;
7767;SDS011;3928;42.626;23.382;2023-04-08T15:01:05;9.83;;;8.80;;
7767;SDS011;3928;42.626;23.382;2023-04-08T15:03:32;10.10;;;8.23;;
7767;SDS011;3928;42.626;23.382;2023-04-08T15:05:58;9.17;;;7.93;;
7767;SDS011;3928;42.626;23.382;2023-04-08T15:08:27;10.37;;;8.97;;